Terminal Aerodrome Forecast
Issued by NWS

Current Version | Previous Version | Text Only | Print | Product List | Glossary Off
Versions: 1 2 3 4 5 6 7 8 9 10 11 12 13 14 15 16 17 18 19

000
FTUS41 KPBZ 311100
TAFMGW
TAF
KMGW 311133Z 3112/0112 21005KT P6SM SCT030
      TEMPO 3115/3118 BKN030
     FM311800 24006KT P6SM SCT030 BKN250
     FM011000 20005KT 5SM -SN OVC020=

USA.gov is the U.S. government's official web portal to all federal, state and local government web resources and services.